Latest Weather Observations for Julia Creek

IDQ60801

Issued at 4:35 am EST Monday 24 November 2014 (issued every 30 minutes, with the page automatically refreshed every 10 minutes)

About weather observations | Map of weather stations | Latest weather observations for QLD | Other Formats
Station Details ID: 029058 Name: JULIA CREEK AIRPORT Lat: -20.67 Lon: 141.72 Height: 122.5 m
Data from the previous 72 hours. | See also: Recent months at Julia Creek
Date/Time
EST
Temp
°C
App
Temp
°C
Dew
Point
Rel
Hum
%
Delta-T
°C
Wind Press
QNH
hPa
Press
MSL
hPa
Rain
since 9 am
mm
Dir
 
Spd
km/h
Gust
km/h
Spd
kts
Gust
kts
24/04:30am 27.9 28.9 18.6 57 6.0 NNE 11 13 6 7 1009.1 1008.2 0.0
24/04:00am 28.0 29.1 18.1 55 6.3 NNE 9 13 5 7 1009.1 1008.2 0.0
24/03:30am 27.6 27.7 16.6 51 6.9 NNE 11 13 6 7 1008.9 1008.0 0.0
24/03:00am 27.6 27.3 14.3 44 8.0 NE 9 11 5 6 1008.8 1007.9 0.0
24/02:30am 28.1 29.6 14.7 44 8.1 CALM 0 0 0 0 1008.6 1007.7 0.0
24/02:00am 28.9 30.0 13.6 39 9.2 CALM 0 0 0 0 1008.8 1007.9 0.0
24/01:30am 29.1 30.4 14.1 40 9.1 CALM 0 0 0 0 1009.0 1008.1 0.0
24/01:00am 29.2 30.0 12.6 36 9.8 CALM 0 0 0 0 1009.2 1008.3 0.0
24/12:30am 30.3 31.6 14.0 37 9.9 CALM 0 0 0 0 1009.4 1008.5 0.0
24/12:00am 30.8 31.6 13.6 35 10.4 W 2 4 1 2 1009.7 1008.8 0.0
 
Date/Time
EST
Temp
°C
App
Temp
°C
Dew
Point
Rel
Hum
%
Delta-T
°C
Wind Press
QNH
hPa
Press
MSL
hPa
Rain
since 9 am
mm
Dir
 
Spd
km/h
Gust
km/h
Spd
kts
Gust
kts
23/11:30pm 31.4 31.2 13.6 33 10.8 WNW 7 9 4 5 1009.9 1009.0 0.0
23/11:00pm 33.0 32.6 14.1 32 11.6 W 9 15 5 8 1010.1 1009.2 0.0
23/10:30pm 32.5 32.5 14.1 32 11.3 S 7 17 4 9 1010.4 1009.6 0.0
23/10:00pm 32.7 32.7 14.3 32 11.3 ESE 7 11 4 6 1009.7 1008.8 0.0
23/09:30pm 32.7 33.1 14.8 34 11.1 E 6 9 3 5 1009.5 1008.6 0.0
23/09:00pm 33.4 33.8 15.4 34 11.3 ENE 7 13 4 7 1009.5 1008.6 0.0
23/08:30pm 33.7 32.6 15.2 33 11.6 ENE 15 26 8 14 1009.1 1008.2 0.0
23/08:00pm 34.2 29.6 14.7 31 12.1 ENE 32 43 17 23 1009.0 1008.1 0.0
23/07:30pm 36.2 31.8 13.0 24 14.2 SE 28 35 15 19 1008.1 1007.2 0.0
23/07:00pm 36.8 31.6 12.9 24 14.6 SE 32 46 17 25 1007.9 1007.0 0.0
23/06:54pm 37.0 32.7 13.1 24 14.7 SE 28 46 15 25 1007.8 1006.9 0.0
23/06:41pm 38.2 32.9 11.3 20 16.1 ESE 30 41 16 22 1007.7 1006.8 0.0
23/06:30pm 39.3 38.2 10.6 18 17.1 E 7 13 4 7 1007.3 1006.4 0.0
23/06:00pm 39.7 39.9 11.7 19 17.0 E 2 9 1 5 1007.0 1006.1 0.0
23/05:30pm 40.0 38.2 12.0 19 17.1 ENE 13 17 7 9 1006.4 1005.5 0.0
23/05:00pm 40.3 39.0 11.4 18 17.5 ENE 9 17 5 9 1006.4 1005.5 0.0
23/04:30pm 40.6 39.7 12.5 19 17.3 N 9 19 5 10 1006.3 1005.4 0.0
23/04:00pm 41.1 39.4 13.7 20 17.2 NNW 15 24 8 13 1006.5 1005.6 0.0
23/03:30pm 39.6 39.3 13.2 21 16.4 N 7 15 4 8 1007.0 1006.1 0.0
23/03:00pm 39.5 38.2 13.8 22 16.1 NNE 13 24 7 13 1007.4 1006.5 0.0
23/02:30pm 40.2 39.7 13.7 21 16.6 N 9 20 5 11 1008.0 1007.1 0.0
23/02:00pm 41.2 39.9 13.7 19 17.3 NE 13 22 7 12 1008.5 1007.6 0.0
23/01:30pm 40.9 40.9 13.5 20 17.1 ENE 6 17 3 9 1009.0 1008.1 0.0
23/01:00pm 40.9 40.9 14.3 21 16.8 NW 7 11 4 6 1009.7 1008.8 0.0
23/12:30pm 40.0 39.3 14.2 21 16.2 NNE 11 26 6 14 1010.2 1009.3 0.0
23/12:00pm 39.7 37.4 14.7 23 15.8 E 20 28 11 15 1010.7 1009.9 0.0
23/11:30am 39.0 36.9 14.7 23 15.3 ENE 19 32 10 17 1011.1 1010.3 0.0
23/11:00am 39.3 36.6 15.6 24 15.2 ENE 24 33 13 18 1011.5 1010.7 0.0
23/10:30am 38.2 35.0 15.3 25 14.5 NE 26 37 14 20 1011.9 1011.1 0.0
23/10:00am 37.1 34.0 15.5 27 13.7 NE 26 33 14 18 1012.0 1011.2 0.0
23/09:30am 35.9 33.4 16.1 30 12.6 NE 24 33 13 18 1012.2 1011.4 0.0
23/09:00am 35.2 33.2 16.5 33 12.0 ENE 22 32 12 17 1012.4 1011.6 0.0
23/08:30am 33.4 31.3 17.1 37 10.4 E 24 33 13 18 1012.5 1011.7 0.0
23/08:00am 32.8 31.0 17.0 38 10.1 E 22 28 12 15 1012.5 1011.7 0.0
23/07:30am 31.0 28.6 17.3 43 8.7 E 26 32 14 17 1012.3 1011.5 0.0
23/07:00am 29.7 28.7 17.5 48 7.8 E 19 22 10 12 1012.1 1011.3 0.0
23/06:30am 28.2 28.7 17.4 52 6.8 E 11 15 6 8 1011.9 1011.1 0.0
23/06:00am 27.3 27.3 17.2 54 6.4 E 13 17 7 9 1011.3 1010.5 0.0
23/05:30am 27.9 27.5 17.1 51 6.8 E 15 20 8 11 1011.0 1010.2 0.0
23/05:00am 28.4 26.6 17.0 50 7.2 ESE 22 28 12 15 1010.8 1010.0 0.0
23/04:30am 28.5 26.8 17.1 50 7.2 ESE 22 26 12 14 1010.4 1009.6 0.0
23/04:00am 28.8 26.3 17.0 49 7.4 SE 26 37 14 20 1010.2 1009.3 0.0
23/03:30am 29.2 26.9 16.7 46 7.9 SE 24 32 13 17 1010.0 1009.1 0.0
23/03:00am 29.4 27.9 16.2 44 8.3 S 19 24 10 13 1009.2 1008.3 0.0
23/02:30am 30.0 27.5 16.1 43 8.7 S 24 33 13 18 1009.3 1008.4 0.0
23/02:00am 30.9 27.8 14.5 37 10.0 SSW 24 35 13 19 1009.2 1008.3 0.0
23/01:30am 30.2 29.0 13.9 37 9.9 SSW 13 17 7 9 1009.2 1008.3 0.0
23/01:00am 30.1 28.8 13.8 37 9.9 SW 13 17 7 9 1009.4 1008.5 0.0
23/12:30am 30.7 29.2 14.3 36 10.0 SW 15 17 8 9 1009.8 1008.9 0.0
23/12:00am 30.7 29.7 15.5 39 9.4 SW 15 20 8 11 1010.1 1009.2 0.0
 
Date/Time
EST
Temp
°C
App
Temp
°C
Dew
Point
Rel
Hum
%
Delta-T
°C
Wind Press
QNH
hPa
Press
MSL
hPa
Rain
since 9 am
mm
Dir
 
Spd
km/h
Gust
km/h
Spd
kts
Gust
kts
22/11:30pm 31.4 31.4 16.2 40 9.6 NNW 11 15 6 8 1010.1 1009.2 0.0
22/11:00pm 31.9 31.0 15.8 38 10.1 N 15 20 8 11 1010.4 1009.6 0.0
22/10:30pm 32.1 30.3 16.0 38 10.1 N 20 28 11 15 1010.5 1009.7 0.0
22/10:00pm 31.4 30.7 17.3 43 9.0 NNE 17 22 9 12 1010.5 1009.7 0.0
22/09:30pm 31.5 28.2 17.0 41 9.2 NNE 30 39 16 21 1010.5 1009.7 0.0
22/09:00pm 33.5 28.7 15.5 34 11.3 N 35 46 19 25 1009.9 1009.0 0.0
22/08:56pm 33.5 28.5 15.0 32 11.5 N 35 46 19 25 1010.0 1009.1 0.0
22/08:39pm 34.1 29.1 16.0 34 11.4 NE 37 52 20 28 1009.9 1009.0 0.0
22/08:30pm 34.6 30.5 16.0 33 11.8 E 32 54 17 29 1009.9 1009.0 0.0
22/08:26pm 34.9 31.5 15.7 31 12.1 E 28 46 15 25 1009.7 1008.8 0.0
22/08:00pm 35.3 35.5 11.7 24 14.1 NNW 2 4 1 2 1009.0 1008.1 0.0
22/07:30pm 36.5 36.2 11.3 22 15.0 WNW 4 6 2 3 1008.5 1007.6 0.0
22/07:00pm 37.7 37.4 11.6 21 15.7 W 4 9 2 5 1008.1 1007.2 0.0
22/06:30pm 38.3 39.2 12.8 22 15.6 CALM 0 0 0 0 1007.4 1006.5 0.0
22/06:00pm 39.0 39.8 12.7 21 16.2 CALM 0 0 0 0 1006.9 1006.0 0.0
22/05:30pm 39.2 38.7 12.1 20 16.5 E 6 11 3 6 1006.9 1006.0 0.0
22/05:00pm 40.1 39.6 12.1 19 17.2 NNW 6 11 3 6 1006.8 1005.9 0.0
22/04:30pm 40.3 40.2 12.2 19 17.2 ENE 4 9 2 5 1007.1 1006.2 0.0
22/04:00pm 40.4 40.7 12.3 19 17.3 NE 2 9 1 5 1007.5 1006.6 0.0
22/03:30pm 40.0 40.1 12.8 20 16.8 W 4 13 2 7 1007.9 1007.0 0.0
22/03:00pm 40.3 39.3 12.2 19 17.2 WNW 9 19 5 10 1008.2 1007.3 0.0
22/02:30pm 41.0 39.9 12.0 18 17.8 ENE 9 20 5 11 1008.6 1007.7 0.0
22/02:00pm 40.0 39.5 12.8 20 16.8 NNE 7 19 4 10 1009.0 1008.1 0.0
22/01:30pm 39.1 37.5 12.8 21 16.2 N 13 20 7 11 1009.6 1008.7 0.0
22/01:00pm 39.0 38.2 14.1 23 15.6 N 11 22 6 12 1010.1 1009.2 0.0
22/12:30pm 38.9 38.4 15.9 25 14.7 NW 13 22 7 12 1010.6 1009.8 0.0
22/12:00pm 38.0 38.0 15.2 26 14.5 NNE 9 19 5 10 1011.1 1010.3 0.0
22/11:30am 36.8 35.3 15.3 28 13.6 N 17 26 9 14 1011.5 1010.7 0.0
22/11:00am 38.0 38.2 15.7 26 14.2 N 9 20 5 11 1011.8 1011.0 0.0
22/10:30am 35.6 36.0 16.4 32 12.3 N 9 20 5 11 1012.2 1011.4 0.0
22/10:00am 34.7 36.1 17.4 35 11.2 NNW 6 13 3 7 1012.5 1011.7 0.0
22/09:30am 32.8 34.2 18.6 43 9.3 NW 9 15 5 8 1012.0 1011.2 0.0
22/09:00am 30.9 32.8 18.9 48 7.8 N 7 15 4 8 1012.1 1011.3 2.0
22/08:30am 29.3 30.1 19.0 53 6.7 NE 13 17 7 9 1012.1 1011.3 2.0
22/08:00am 27.7 28.9 19.8 62 5.2 NE 13 17 7 9 1012.1 1011.3 2.0
22/07:30am 27.6 28.9 20.2 64 4.9 ENE 13 17 7 9 1012.1 1011.3 2.0
22/07:00am 26.8 28.7 20.6 69 4.1 ENE 11 15 6 8 1011.9 1011.1 2.0
22/06:30am 24.3 26.7 20.8 81 2.3 E 9 13 5 7 1011.6 1010.8 2.0
22/06:00am 23.4 24.9 20.5 84 1.9 E 13 19 7 10 1010.9 1010.1 2.0
22/05:30am 23.8 26.2 19.7 78 2.6 WSW 6 7 3 4 1010.0 1009.1 2.0
22/05:00am 24.5 26.5 20.0 76 2.9 W 9 11 5 6 1009.6 1008.7 2.0
22/04:30am 25.1 25.9 19.9 73 3.4 W 15 19 8 10 1009.2 1008.3 2.0
22/04:00am 25.2 26.0 19.8 72 3.5 WNW 15 20 8 11 1009.4 1008.5 2.0
22/03:30am 25.5 26.2 19.6 70 3.8 WNW 15 20 8 11 1009.5 1008.6 2.0
22/03:00am 25.7 26.0 19.6 69 4.0 WNW 17 24 9 13 1009.5 1008.6 2.0
22/02:30am 26.4 25.6 19.3 65 4.6 NW 22 28 12 15 1009.7 1008.8 2.0
22/02:00am 26.7 26.6 18.8 62 5.1 NW 17 22 9 12 1010.2 1009.3 2.0
22/01:30am 26.9 27.1 18.5 60 5.4 NW 15 20 8 11 1010.2 1009.3 2.0
22/01:00am 27.0 26.3 18.6 60 5.4 NW 20 26 11 14 1010.2 1009.3 2.0
22/12:30am 27.0 26.5 18.6 60 5.4 NW 19 24 10 13 1010.3 1009.5 2.0
22/12:00am 26.6 26.1 18.7 62 5.1 N 19 26 10 14 1010.0 1009.1 2.0
 
Date/Time
EST
Temp
°C
App
Temp
°C
Dew
Point
Rel
Hum
%
Delta-T
°C
Wind Press
QNH
hPa
Press
MSL
hPa
Rain
since 9 am
mm
Dir
 
Spd
km/h
Gust
km/h
Spd
kts
Gust
kts
21/11:30pm 26.7 26.3 18.8 62 5.1 N 19 24 10 13 1010.5 1009.7 2.0
21/11:00pm 26.1 26.1 19.0 65 4.6 N 17 22 9 12 1011.5 1010.7 2.0
21/10:30pm 26.7 25.4 19.1 63 4.9 NNE 24 32 13 17 1011.2 1010.4 2.0
21/10:00pm 27.3 26.2 19.4 62 5.1 NNE 24 32 13 17 1010.9 1010.1 2.0
21/09:30pm 26.0 29.5 20.3 71 3.7 ESE 2 6 1 3 1009.7 1008.8 2.0
21/09:00pm 27.0 28.0 19.4 63 4.9 E 13 28 7 15 1009.7 1008.8 2.0
21/08:30pm 26.3 26.6 19.7 67 4.3 NE 17 22 9 12 1009.9 1009.0 2.0
21/08:00pm 26.9 26.2 19.5 64 4.8 ENE 22 35 12 19 1009.9 1009.0 1.8
21/07:30pm 27.5 25.0 19.8 63 5.0 NE 32 43 17 23 1009.8 1008.9 1.6
21/07:27pm 27.8 25.7 19.8 61 5.2 NE 30 43 16 23 1009.8 1008.9 1.4
21/07:00pm 28.9 28.9 19.8 58 6.0 N 19 22 10 12 1008.7 1007.8 1.4
21/06:30pm 28.7 28.6 19.6 58 6.0 N 19 22 10 12 1008.6 1007.7 1.4
21/06:00pm 29.9 32.7 19.6 54 6.8 E 4 26 2 14 1009.2 1008.3 1.4
21/05:30pm 29.6 30.2 20.2 57 6.2 SSW 17 24 9 13 1008.7 1007.8 1.4
21/05:00pm 27.9 25.9 19.9 61 5.3 SSE 30 41 16 22 1008.0 1007.1 1.4
21/04:49pm 29.0 26.5 20.2 59 5.8 S 33 44 18 24 1007.8 1006.9 1.4
21/04:36pm 29.0 25.4 19.3 55 6.3 ESE 37 59 20 32 1007.2 1006.3 1.0
21/04:34pm 29.2 19.7 18.0 51 7.2 ESE 65 87 35 47 1006.2 1005.3 0.8
21/04:33pm 29.8 24.7 17.6 48 7.8 SSE 41 87 22 47 1006.6 1005.7 0.8
21/04:32pm 32.0 29.1 17.1 41 9.5 SSE 28 52 15 28 1007.0 1006.1 0.6
21/04:30pm 37.0 36.1 18.1 33 12.4 SW 20 26 11 14 1006.7 1005.8 0.2
21/04:00pm 41.3 39.5 12.2 18 17.9 NNW 13 20 7 11 1005.8 1004.9 0.0
21/03:30pm 43.1 42.2 13.7 18 18.6 N 11 24 6 13 1005.6 1004.7 0.0
21/03:00pm 42.6 42.0 12.4 17 18.7 N 7 11 4 6 1006.4 1005.5 0.0
21/02:30pm 43.0 39.9 14.4 19 18.2 N 24 35 13 19 1006.6 1005.7 0.0
21/02:00pm 41.0 41.8 13.6 20 17.2 NNW 2 - 1 - - 1006.6 -
21/01:30pm 41.9 40.6 17.2 24 16.3 NW 20 33 11 18 1008.5 1007.6 0.0
21/01:00pm 41.5 40.6 18.1 25 15.6 NW 20 33 11 18 1009.1 1008.2 0.0
21/12:30pm 41.0 39.1 17.7 26 15.4 NNW 24 37 13 20 1009.5 1008.6 0.0
21/12:00pm 40.5 38.2 18.4 27 14.7 NNW 28 37 15 20 1010.0 1009.1 0.0
21/11:30am 39.2 37.0 19.5 32 13.2 NNW 30 43 16 23 1010.5 1009.7 0.0
21/11:00am 38.5 36.4 19.8 33 12.6 N 30 41 16 22 1010.8 1010.0 0.0
21/10:30am 38.5 36.7 20.3 34 12.3 N 30 50 16 27 1011.0 1010.2 0.0
21/10:10am 37.9 36.2 19.8 35 12.2 N 28 48 15 26 1011.1 1010.3 0.0
21/10:00am 38.0 36.3 19.9 35 12.2 N 28 39 15 21 1011.2 1010.4 0.0
21/09:30am 36.9 36.3 19.8 36 11.5 N 22 32 12 17 1011.5 1010.7 0.0
21/09:00am 37.0 36.5 19.0 34 12.0 N 20 30 11 16 1011.6 1010.8 0.0
21/08:30am 36.1 35.8 19.5 37 11.1 NNW 20 28 11 15 1011.6 1010.8 0.0
21/08:00am 34.8 34.9 20.4 43 9.7 NW 20 26 11 14 1011.3 1010.5 0.0
21/07:30am 33.3 34.7 21.1 48 8.3 NNW 15 20 8 11 1011.2 1010.4 0.0
21/07:00am 31.7 33.8 20.9 52 7.3 NNW 11 17 6 9 1010.9 1010.1 0.0
21/06:30am 30.1 31.9 19.5 53 7.0 NNW 9 13 5 7 1010.5 1009.7 0.0
21/06:00am 28.7 30.5 18.8 55 6.4 N 7 9 4 5 1010.0 1009.1 0.0
21/05:30am 28.7 30.5 18.2 53 6.7 N 6 9 3 5 1009.6 1008.7 0.0
21/05:00am 29.6 30.8 19.0 53 6.9 N 11 13 6 7 1009.2 1008.3 0.0

Other Formats:

Comma delimited format used in spreadsheet applications
http://www.bom.gov.au/fwo/IDQ60801/IDQ60801.94337.axf

JavaScript Object Notation format (JSON) in row-major order
http://www.bom.gov.au/fwo/IDQ60801/IDQ60801.94337.json